BAW18A EGKK-EDDF
Flight info
| Callsign | BAW18A |
|---|---|
| Flight time | N/A |
| Altitude | 34000 |
| Route | EGKK MIMF1M MIMFO Y312 DVR UL9 KONAN UL607 SPI T180 NIVNU T847 IMCOM IMCO2C EDDF |
| Aircraft | B738/L-L/FMC |
Departure
| Time | 2026-04-14 16:29 |
|---|---|
| Airport | London Gatwick Airport (EGKK) |
Arrival
| Time | N/A |
|---|---|
| Airport | Frankfurt Main Airport (EDDF) |
| Time | Latitude | Longitude | Altitude | Speed | Heading |
|---|---|---|---|---|---|
| 2026-04-14 15:36 | 51.15467 | -0.17081 | 204 ft | 0 kts | 348° |
| 2026-04-14 15:55 | 51.15454 | -0.17076 | 211 ft | 3 kts | 348° |
| 2026-04-14 15:55 | 51.15432 | -0.17069 | 204 ft | 1 kts | 342° |
| 2026-04-14 15:56 | 51.15423 | -0.17062 | 204 ft | 1 kts | 318° |
| 2026-04-14 15:56 | 51.15415 | -0.17046 | 204 ft | 1 kts | 266° |
| 2026-04-14 15:56 | 51.15415 | -0.17042 | 204 ft | 0 kts | 258° |
| 2026-04-14 16:01 | 51.15415 | -0.17044 | 204 ft | 2 kts | 258° |
| 2026-04-14 16:01 | 51.15405 | -0.17111 | 207 ft | 10 kts | 256° |
| 2026-04-14 16:01 | 51.15378 | -0.17213 | 208 ft | 10 kts | 253° |
| 2026-04-14 16:02 | 51.15359 | -0.17315 | 210 ft | 10 kts | 253° |
| 2026-04-14 16:02 | 51.15305 | -0.17348 | 204 ft | 9 kts | 169° |
| 2026-04-14 16:02 | 51.15248 | -0.17306 | 204 ft | 9 kts | 129° |
| 2026-04-14 16:02 | 51.15245 | -0.17211 | 209 ft | 9 kts | 78° |
| 2026-04-14 16:03 | 51.15258 | -0.17116 | 208 ft | 9 kts | 78° |
| 2026-04-14 16:03 | 51.15270 | -0.17023 | 204 ft | 8 kts | 78° |
| 2026-04-14 16:03 | 51.15275 | -0.16982 | 209 ft | 2 kts | 78° |
| 2026-04-14 16:03 | 51.15278 | -0.16962 | 208 ft | 2 kts | 78° |
| 2026-04-14 16:04 | 51.15279 | -0.16957 | 208 ft | 0 kts | 78° |
| 2026-04-14 16:08 | 51.15280 | -0.16951 | 206 ft | 2 kts | 78° |
| 2026-04-14 16:08 | 51.15280 | -0.16950 | 206 ft | 0 kts | 78° |
| 2026-04-14 16:12 | 51.15280 | -0.16945 | 213 ft | 4 kts | 78° |
| 2026-04-14 16:12 | 51.15285 | -0.16907 | 204 ft | 0 kts | 78° |
| 2026-04-14 16:13 | 51.15286 | -0.16900 | 204 ft | 3 kts | 78° |
| 2026-04-14 16:13 | 51.15287 | -0.16898 | 204 ft | 0 kts | 78° |
| 2026-04-14 16:16 | 51.15287 | -0.16896 | 204 ft | 2 kts | 78° |
| 2026-04-14 16:16 | 51.15280 | -0.16836 | 204 ft | 3 kts | 129° |
| 2026-04-14 16:17 | 51.15278 | -0.16833 | 204 ft | 2 kts | 132° |
| 2026-04-14 16:18 | 51.15274 | -0.16828 | 209 ft | 0 kts | 139° |
| 2026-04-14 16:26 | 51.15255 | -0.16813 | 204 ft | 5 kts | 164° |
| 2026-04-14 16:26 | 51.15231 | -0.16805 | 213 ft | 0 kts | 168° |
| 2026-04-14 16:27 | 51.15221 | -0.16802 | 207 ft | 6 kts | 168° |
| 2026-04-14 16:27 | 51.15171 | -0.16785 | 203 ft | 9 kts | 168° |
| 2026-04-14 16:27 | 51.15116 | -0.16827 | 204 ft | 6 kts | 249° |
| 2026-04-14 16:28 | 51.15116 | -0.16833 | 204 ft | 0 kts | 255° |
| 2026-04-14 16:28 | 51.15067 | -0.17175 | 209 ft | 71 kts | 257° |
| 2026-04-14 16:28 | 51.14907 | -0.18327 | 207 ft | 141 kts | 257° |
| 2026-04-14 16:29 | 51.14650 | -0.20132 | 413 ft | 182 kts | 254° |
| 2026-04-14 16:29 | 51.14377 | -0.22121 | 1328 ft | 193 kts | 253° |
| 2026-04-14 16:29 | 51.14097 | -0.24274 | 2187 ft | 198 kts | 255° |
| 2026-04-14 16:29 | 51.13824 | -0.26426 | 3049 ft | 197 kts | 255° |
| 2026-04-14 16:30 | 51.13793 | -0.28591 | 3680 ft | 206 kts | 276° |
| 2026-04-14 16:30 | 51.13870 | -0.29138 | 3649 ft | 215 kts | 283° |
| 2026-04-14 16:30 | 51.14355 | -0.30683 | 3701 ft | 224 kts | 304° |
| 2026-04-14 16:30 | 51.15591 | -0.32235 | 3819 ft | 235 kts | 335° |
| 2026-04-14 16:31 | 51.17214 | -0.32570 | 3924 ft | 241 kts | 9° |
| 2026-04-14 16:31 | 51.18737 | -0.31448 | 3948 ft | 245 kts | 44° |
| 2026-04-14 16:31 | 51.19614 | -0.29212 | 3970 ft | 238 kts | 78° |
| 2026-04-14 16:31 | 51.19895 | -0.26607 | 4018 ft | 241 kts | 85° |
| 2026-04-14 16:32 | 51.20093 | -0.23957 | 4497 ft | 237 kts | 85° |
| 2026-04-14 16:32 | 51.20306 | -0.21272 | 4878 ft | 258 kts | 85° |
| 2026-04-14 16:32 | 51.20593 | -0.18360 | 5259 ft | 277 kts | 81° |
| 2026-04-14 16:32 | 51.20981 | -0.15273 | 5610 ft | 284 kts | 80° |
| 2026-04-14 16:33 | 51.21393 | -0.12163 | 5755 ft | 285 kts | 79° |
| 2026-04-14 16:33 | 51.21799 | -0.09114 | 6251 ft | 280 kts | 79° |